sensor_id;sensor_type;location;lat;lon;timestamp;P1;durP1;ratioP1;P2;durP2;ratioP2
24421;SDS011;12600;53.326;-6.298;2022-07-05T00:01:06;12.25;;;4.00;;
24421;SDS011;12600;53.326;-6.298;2022-07-05T00:03:36;18.38;;;4.75;;
24421;SDS011;12600;53.326;-6.298;2022-07-05T00:06:05;16.83;;;5.15;;
24421;SDS011;12600;53.326;-6.298;2022-07-05T00:08:34;16.75;;;4.38;;
24421;SDS011;12600;53.326;-6.298;2022-07-05T00:11:04;17.88;;;6.03;;
24421;SDS011;12600;53.326;-6.298;2022-07-05T00:13:33;15.57;;;4.68;;
24421;SDS011;12600;53.326;-6.298;2022-07-05T00:16:03;19.25;;;5.43;;
24421;SDS011;12600;53.326;-6.298;2022-07-05T00:18:34;14.52;;;4.82;;
24421;SDS011;12600;53.326;-6.298;2022-07-05T00:21:03;14.65;;;4.00;;
24421;SDS011;12600;53.326;-6.298;2022-07-05T00:23:33;14.98;;;4.05;;
24421;SDS011;12600;53.326;-6.298;2022-07-05T00:26:02;16.58;;;7.00;;
24421;SDS011;12600;53.326;-6.298;2022-07-05T00:28:31;14.30;;;4.15;;
24421;SDS011;12600;53.326;-6.298;2022-07-05T00:31:01;16.42;;;4.30;;
24421;SDS011;12600;53.326;-6.298;2022-07-05T00:33:32;19.00;;;4.72;;
24421;SDS011;12600;53.326;-6.298;2022-07-05T00:36:01;12.57;;;4.22;;
24421;SDS011;12600;53.326;-6.298;2022-07-05T00:38:32;20.35;;;4.15;;
24421;SDS011;12600;53.326;-6.298;2022-07-05T00:41:01;16.95;;;4.70;;
24421;SDS011;12600;53.326;-6.298;2022-07-05T00:43:30;15.60;;;3.72;;
24421;SDS011;12600;53.326;-6.298;2022-07-05T00:46:00;12.93;;;3.85;;
24421;SDS011;12600;53.326;-6.298;2022-07-05T00:48:29;15.18;;;3.92;;
24421;SDS011;12600;53.326;-6.298;2022-07-05T00:51:00;20.10;;;4.07;;
24421;SDS011;12600;53.326;-6.298;2022-07-05T00:53:29;19.65;;;4.20;;
24421;SDS011;12600;53.326;-6.298;2022-07-05T00:55:58;21.80;;;4.60;;
24421;SDS011;12600;53.326;-6.298;2022-07-05T00:58:27;15.05;;;5.05;;
24421;SDS011;12600;53.326;-6.298;2022-07-05T01:00:58;17.33;;;4.07;;
24421;SDS011;12600;53.326;-6.298;2022-07-05T01:03:32;12.00;;;3.70;;
24421;SDS011;12600;53.326;-6.298;2022-07-05T01:06:03;18.95;;;4.13;;
24421;SDS011;12600;53.326;-6.298;2022-07-05T01:08:37;15.32;;;4.00;;
24421;SDS011;12600;53.326;-6.298;2022-07-05T01:11:09;13.63;;;4.47;;
24421;SDS011;12600;53.326;-6.298;2022-07-05T01:13:39;12.82;;;3.67;;
24421;SDS011;12600;53.326;-6.298;2022-07-05T01:16:09;15.25;;;4.30;;
24421;SDS011;12600;53.326;-6.298;2022-07-05T01:18:40;15.85;;;3.78;;
24421;SDS011;12600;53.326;-6.298;2022-07-05T01:21:11;13.77;;;3.75;;
24421;SDS011;12600;53.326;-6.298;2022-07-05T01:23:46;11.35;;;3.42;;
24421;SDS011;12600;53.326;-6.298;2022-07-05T01:28:47;16.52;;;4.28;;
24421;SDS011;12600;53.326;-6.298;2022-07-05T01:31:16;11.65;;;3.97;;
24421;SDS011;12600;53.326;-6.298;2022-07-05T01:33:50;15.30;;;4.32;;
24421;SDS011;12600;53.326;-6.298;2022-07-05T01:36:23;17.00;;;4.25;;
24421;SDS011;12600;53.326;-6.298;2022-07-05T01:38:54;19.92;;;8.90;;
24421;SDS011;12600;53.326;-6.298;2022-07-05T01:41:24;17.88;;;4.45;;
24421;SDS011;12600;53.326;-6.298;2022-07-05T01:43:53;13.75;;;4.57;;
24421;SDS011;12600;53.326;-6.298;2022-07-05T01:46:22;23.08;;;20.77;;
24421;SDS011;12600;53.326;-6.298;2022-07-05T01:48:56;13.77;;;4.80;;
24421;SDS011;12600;53.326;-6.298;2022-07-05T01:51:29;16.63;;;5.05;;
24421;SDS011;12600;53.326;-6.298;2022-07-05T01:54:07;18.65;;;6.18;;
24421;SDS011;12600;53.326;-6.298;2022-07-05T01:56:37;28.42;;;19.75;;
24421;SDS011;12600;53.326;-6.298;2022-07-05T01:59:07;22.88;;;5.70;;
24421;SDS011;12600;53.326;-6.298;2022-07-05T02:01:36;15.30;;;5.00;;
24421;SDS011;12600;53.326;-6.298;2022-07-05T02:04:08;21.17;;;5.68;;
24421;SDS011;12600;53.326;-6.298;2022-07-05T02:06:39;12.02;;;4.55;;
24421;SDS011;12600;53.326;-6.298;2022-07-05T02:09:11;17.33;;;4.85;;
24421;SDS011;12600;53.326;-6.298;2022-07-05T02:11:40;12.50;;;5.90;;
24421;SDS011;12600;53.326;-6.298;2022-07-05T02:14:10;15.30;;;4.45;;
24421;SDS011;12600;53.326;-6.298;2022-07-05T02:16:40;13.57;;;4.47;;
24421;SDS011;12600;53.326;-6.298;2022-07-05T02:19:11;15.98;;;5.60;;
24421;SDS011;12600;53.326;-6.298;2022-07-05T02:21:42;10.40;;;5.75;;
24421;SDS011;12600;53.326;-6.298;2022-07-05T02:24:17;12.68;;;10.10;;
24421;SDS011;12600;53.326;-6.298;2022-07-05T02:27:07;16.40;;;5.10;;
24421;SDS011;12600;53.326;-6.298;2022-07-05T02:29:37;12.98;;;6.65;;
24421;SDS011;12600;53.326;-6.298;2022-07-05T02:32:06;9.32;;;4.00;;
24421;SDS011;12600;53.326;-6.298;2022-07-05T02:34:36;29.60;;;27.25;;
24421;SDS011;12600;53.326;-6.298;2022-07-05T02:37:06;10.85;;;4.93;;
24421;SDS011;12600;53.326;-6.298;2022-07-05T02:39:36;14.18;;;6.35;;
24421;SDS011;12600;53.326;-6.298;2022-07-05T02:42:09;12.30;;;4.90;;
24421;SDS011;12600;53.326;-6.298;2022-07-05T02:44:39;12.30;;;4.28;;
24421;SDS011;12600;53.326;-6.298;2022-07-05T02:47:09;10.82;;;4.65;;
24421;SDS011;12600;53.326;-6.298;2022-07-05T02:49:40;15.70;;;6.43;;
24421;SDS011;12600;53.326;-6.298;2022-07-05T02:52:09;10.10;;;4.75;;
24421;SDS011;12600;53.326;-6.298;2022-07-05T02:54:41;15.57;;;9.75;;
24421;SDS011;12600;53.326;-6.298;2022-07-05T02:57:12;18.30;;;14.43;;
24421;SDS011;12600;53.326;-6.298;2022-07-05T02:59:41;13.70;;;6.45;;
24421;SDS011;12600;53.326;-6.298;2022-07-05T03:02:10;12.10;;;5.43;;
24421;SDS011;12600;53.326;-6.298;2022-07-05T03:04:41;12.50;;;4.18;;
24421;SDS011;12600;53.326;-6.298;2022-07-05T03:07:11;12.82;;;10.55;;
24421;SDS011;12600;53.326;-6.298;2022-07-05T03:09:42;9.00;;;4.28;;
24421;SDS011;12600;53.326;-6.298;2022-07-05T03:12:12;8.98;;;3.97;;
24421;SDS011;12600;53.326;-6.298;2022-07-05T03:14:43;8.40;;;3.72;;
24421;SDS011;12600;53.326;-6.298;2022-07-05T03:17:14;7.75;;;4.78;;
24421;SDS011;12600;53.326;-6.298;2022-07-05T03:19:44;10.27;;;3.67;;
24421;SDS011;12600;53.326;-6.298;2022-07-05T03:22:15;10.27;;;4.75;;
24421;SDS011;12600;53.326;-6.298;2022-07-05T03:24:46;15.00;;;6.57;;
24421;SDS011;12600;53.326;-6.298;2022-07-05T03:27:16;11.35;;;4.65;;
24421;SDS011;12600;53.326;-6.298;2022-07-05T03:29:50;15.05;;;4.57;;
24421;SDS011;12600;53.326;-6.298;2022-07-05T03:32:19;12.95;;;9.45;;
24421;SDS011;12600;53.326;-6.298;2022-07-05T03:34:49;8.88;;;5.90;;
24421;SDS011;12600;53.326;-6.298;2022-07-05T03:37:19;8.23;;;4.00;;
24421;SDS011;12600;53.326;-6.298;2022-07-05T03:39:50;9.80;;;4.38;;
24421;SDS011;12600;53.326;-6.298;2022-07-05T03:42:19;10.82;;;3.70;;
24421;SDS011;12600;53.326;-6.298;2022-07-05T03:44:49;8.20;;;5.10;;
24421;SDS011;12600;53.326;-6.298;2022-07-05T03:47:19;11.95;;;10.85;;
24421;SDS011;12600;53.326;-6.298;2022-07-05T03:49:49;7.00;;;4.03;;
24421;SDS011;12600;53.326;-6.298;2022-07-05T03:52:18;13.82;;;8.20;;
24421;SDS011;12600;53.326;-6.298;2022-07-05T03:54:55;6.55;;;5.60;;
24421;SDS011;12600;53.326;-6.298;2022-07-05T03:57:24;10.57;;;6.95;;
24421;SDS011;12600;53.326;-6.298;2022-07-05T03:59:54;11.57;;;7.07;;
24421;SDS011;12600;53.326;-6.298;2022-07-05T04:02:23;11.27;;;6.57;;
24421;SDS011;12600;53.326;-6.298;2022-07-05T04:04:53;9.75;;;8.55;;
24421;SDS011;12600;53.326;-6.298;2022-07-05T04:07:22;10.65;;;6.65;;
24421;SDS011;12600;53.326;-6.298;2022-07-05T04:09:52;10.68;;;6.43;;
24421;SDS011;12600;53.326;-6.298;2022-07-05T04:12:24;7.13;;;4.88;;
24421;SDS011;12600;53.326;-6.298;2022-07-05T04:14:53;18.10;;;16.67;;
24421;SDS011;12600;53.326;-6.298;2022-07-05T04:17:23;7.35;;;4.13;;
24421;SDS011;12600;53.326;-6.298;2022-07-05T04:19:52;7.55;;;4.72;;
24421;SDS011;12600;53.326;-6.298;2022-07-05T04:22:22;8.40;;;4.28;;
24421;SDS011;12600;53.326;-6.298;2022-07-05T04:24:51;9.27;;;4.60;;
24421;SDS011;12600;53.326;-6.298;2022-07-05T04:27:39;9.48;;;5.13;;
24421;SDS011;12600;53.326;-6.298;2022-07-05T04:30:10;8.10;;;5.80;;
24421;SDS011;12600;53.326;-6.298;2022-07-05T04:32:40;9.18;;;5.03;;
24421;SDS011;12600;53.326;-6.298;2022-07-05T04:35:10;8.73;;;6.00;;
24421;SDS011;12600;53.326;-6.298;2022-07-05T04:37:41;9.40;;;5.07;;
24421;SDS011;12600;53.326;-6.298;2022-07-05T04:40:12;10.43;;;5.32;;
24421;SDS011;12600;53.326;-6.298;2022-07-05T04:42:43;8.77;;;4.78;;
24421;SDS011;12600;53.326;-6.298;2022-07-05T04:45:14;8.73;;;5.88;;
24421;SDS011;12600;53.326;-6.298;2022-07-05T04:47:44;7.63;;;5.03;;
24421;SDS011;12600;53.326;-6.298;2022-07-05T04:50:14;10.13;;;5.80;;
24421;SDS011;12600;53.326;-6.298;2022-07-05T04:52:44;7.97;;;5.28;;
24421;SDS011;12600;53.326;-6.298;2022-07-05T04:55:13;8.98;;;4.43;;
24421;SDS011;12600;53.326;-6.298;2022-07-05T04:57:43;7.00;;;6.07;;
24421;SDS011;12600;53.326;-6.298;2022-07-05T05:00:13;8.05;;;5.32;;
24421;SDS011;12600;53.326;-6.298;2022-07-05T05:02:43;8.15;;;5.30;;
24421;SDS011;12600;53.326;-6.298;2022-07-05T05:05:13;9.02;;;5.47;;
24421;SDS011;12600;53.326;-6.298;2022-07-05T05:07:43;8.07;;;5.80;;
24421;SDS011;12600;53.326;-6.298;2022-07-05T05:10:12;7.90;;;6.30;;
24421;SDS011;12600;53.326;-6.298;2022-07-05T05:12:43;7.97;;;5.75;;
24421;SDS011;12600;53.326;-6.298;2022-07-05T05:15:13;7.97;;;4.15;;
24421;SDS011;12600;53.326;-6.298;2022-07-05T05:17:42;7.60;;;4.50;;
24421;SDS011;12600;53.326;-6.298;2022-07-05T05:20:12;6.65;;;4.80;;
24421;SDS011;12600;53.326;-6.298;2022-07-05T05:22:43;6.27;;;4.23;;
24421;SDS011;12600;53.326;-6.298;2022-07-05T05:25:13;4.35;;;3.90;;
24421;SDS011;12600;53.326;-6.298;2022-07-05T05:27:45;5.28;;;4.53;;
24421;SDS011;12600;53.326;-6.298;2022-07-05T05:30:16;7.28;;;4.40;;
24421;SDS011;12600;53.326;-6.298;2022-07-05T05:32:46;7.85;;;4.00;;
24421;SDS011;12600;53.326;-6.298;2022-07-05T05:35:16;6.45;;;4.30;;
24421;SDS011;12600;53.326;-6.298;2022-07-05T05:37:48;5.07;;;3.83;;
24421;SDS011;12600;53.326;-6.298;2022-07-05T05:40:19;6.18;;;4.20;;
24421;SDS011;12600;53.326;-6.298;2022-07-05T05:42:50;5.93;;;5.13;;
24421;SDS011;12600;53.326;-6.298;2022-07-05T05:45:21;6.38;;;3.60;;
24421;SDS011;12600;53.326;-6.298;2022-07-05T05:47:52;4.78;;;3.63;;
24421;SDS011;12600;53.326;-6.298;2022-07-05T05:50:26;6.60;;;3.50;;
24421;SDS011;12600;53.326;-6.298;2022-07-05T05:52:57;3.88;;;3.42;;
24421;SDS011;12600;53.326;-6.298;2022-07-05T05:55:29;5.68;;;3.20;;
24421;SDS011;12600;53.326;-6.298;2022-07-05T05:58:11;5.85;;;3.40;;
24421;SDS011;12600;53.326;-6.298;2022-07-05T06:00:41;4.95;;;2.97;;
24421;SDS011;12600;53.326;-6.298;2022-07-05T06:03:11;3.65;;;2.90;;
24421;SDS011;12600;53.326;-6.298;2022-07-05T06:05:40;2.65;;;2.35;;
24421;SDS011;12600;53.326;-6.298;2022-07-05T06:08:10;2.92;;;2.65;;
24421;SDS011;12600;53.326;-6.298;2022-07-05T06:10:39;4.35;;;3.00;;
24421;SDS011;12600;53.326;-6.298;2022-07-05T06:13:25;3.92;;;2.60;;
24421;SDS011;12600;53.326;-6.298;2022-07-05T06:15:56;5.68;;;2.45;;
24421;SDS011;12600;53.326;-6.298;2022-07-05T06:18:26;5.32;;;2.78;;
24421;SDS011;12600;53.326;-6.298;2022-07-05T06:20:59;2.80;;;2.40;;
24421;SDS011;12600;53.326;-6.298;2022-07-05T06:23:31;2.40;;;2.17;;
24421;SDS011;12600;53.326;-6.298;2022-07-05T06:26:03;3.47;;;3.17;;
24421;SDS011;12600;53.326;-6.298;2022-07-05T06:28:34;2.20;;;2.00;;
24421;SDS011;12600;53.326;-6.298;2022-07-05T06:31:03;4.78;;;2.40;;
24421;SDS011;12600;53.326;-6.298;2022-07-05T06:33:36;3.08;;;2.72;;
24421;SDS011;12600;53.326;-6.298;2022-07-05T06:36:09;3.20;;;1.98;;
24421;SDS011;12600;53.326;-6.298;2022-07-05T06:38:38;3.55;;;1.95;;
24421;SDS011;12600;53.326;-6.298;2022-07-05T06:41:08;2.10;;;1.90;;
24421;SDS011;12600;53.326;-6.298;2022-07-05T06:43:39;3.17;;;2.10;;
24421;SDS011;12600;53.326;-6.298;2022-07-05T06:46:14;2.90;;;2.40;;
24421;SDS011;12600;53.326;-6.298;2022-07-05T06:48:44;2.45;;;2.25;;
24421;SDS011;12600;53.326;-6.298;2022-07-05T06:51:19;4.28;;;2.20;;
24421;SDS011;12600;53.326;-6.298;2022-07-05T06:53:49;2.97;;;2.50;;
24421;SDS011;12600;53.326;-6.298;2022-07-05T06:56:39;5.03;;;3.22;;
24421;SDS011;12600;53.326;-6.298;2022-07-05T06:59:30;2.67;;;2.47;;
24421;SDS011;12600;53.326;-6.298;2022-07-05T07:02:19;3.03;;;2.00;;
24421;SDS011;12600;53.326;-6.298;2022-07-05T07:04:49;4.78;;;3.58;;
24421;SDS011;12600;53.326;-6.298;2022-07-05T07:07:36;2.83;;;2.45;;
24421;SDS011;12600;53.326;-6.298;2022-07-05T07:10:23;2.20;;;2.00;;
24421;SDS011;12600;53.326;-6.298;2022-07-05T07:12:55;2.90;;;2.58;;
24421;SDS011;12600;53.326;-6.298;2022-07-05T07:15:27;4.68;;;4.30;;
24421;SDS011;12600;53.326;-6.298;2022-07-05T07:17:59;2.60;;;2.25;;
24421;SDS011;12600;53.326;-6.298;2022-07-05T07:20:29;3.85;;;2.80;;
24421;SDS011;12600;53.326;-6.298;2022-07-05T07:22:58;2.88;;;2.40;;
24421;SDS011;12600;53.326;-6.298;2022-07-05T07:25:27;2.97;;;2.17;;
24421;SDS011;12600;53.326;-6.298;2022-07-05T07:27:57;2.28;;;2.08;;
24421;SDS011;12600;53.326;-6.298;2022-07-05T07:30:28;2.90;;;2.10;;
24421;SDS011;12600;53.326;-6.298;2022-07-05T07:32:57;4.93;;;2.00;;
24421;SDS011;12600;53.326;-6.298;2022-07-05T07:35:26;2.45;;;2.10;;
24421;SDS011;12600;53.326;-6.298;2022-07-05T07:37:56;2.33;;;1.90;;
24421;SDS011;12600;53.326;-6.298;2022-07-05T07:40:25;2.65;;;2.40;;
24421;SDS011;12600;53.326;-6.298;2022-07-05T07:42:54;1.70;;;1.60;;
24421;SDS011;12600;53.326;-6.298;2022-07-05T07:45:24;2.58;;;1.70;;
24421;SDS011;12600;53.326;-6.298;2022-07-05T07:47:56;4.82;;;1.83;;
24421;SDS011;12600;53.326;-6.298;2022-07-05T07:50:25;2.92;;;1.88;;
24421;SDS011;12600;53.326;-6.298;2022-07-05T07:52:55;3.83;;;1.80;;
24421;SDS011;12600;53.326;-6.298;2022-07-05T07:55:24;2.00;;;1.70;;
24421;SDS011;12600;53.326;-6.298;2022-07-05T07:57:53;2.60;;;1.52;;
24421;SDS011;12600;53.326;-6.298;2022-07-05T08:00:22;4.10;;;1.75;;
24421;SDS011;12600;53.326;-6.298;2022-07-05T08:02:52;6.63;;;2.20;;
24421;SDS011;12600;53.326;-6.298;2022-07-05T08:05:23;1.77;;;1.63;;
24421;SDS011;12600;53.326;-6.298;2022-07-05T08:07:52;2.83;;;2.63;;
24421;SDS011;12600;53.326;-6.298;2022-07-05T08:10:21;2.80;;;1.75;;
24421;SDS011;12600;53.326;-6.298;2022-07-05T08:12:50;2.97;;;1.70;;
24421;SDS011;12600;53.326;-6.298;2022-07-05T08:15:19;4.45;;;3.38;;
24421;SDS011;12600;53.326;-6.298;2022-07-05T08:17:49;3.13;;;1.85;;
24421;SDS011;12600;53.326;-6.298;2022-07-05T08:20:37;4.60;;;1.98;;
24421;SDS011;12600;53.326;-6.298;2022-07-05T08:23:24;2.42;;;2.15;;
24421;SDS011;12600;53.326;-6.298;2022-07-05T08:25:58;4.10;;;3.85;;
24421;SDS011;12600;53.326;-6.298;2022-07-05T08:28:27;2.30;;;2.10;;
24421;SDS011;12600;53.326;-6.298;2022-07-05T08:30:57;2.28;;;2.08;;
24421;SDS011;12600;53.326;-6.298;2022-07-05T08:33:26;2.45;;;2.28;;
24421;SDS011;12600;53.326;-6.298;2022-07-05T08:35:57;2.45;;;2.25;;
24421;SDS011;12600;53.326;-6.298;2022-07-05T08:38:26;2.97;;;2.78;;
24421;SDS011;12600;53.326;-6.298;2022-07-05T08:40:56;3.45;;;2.22;;
24421;SDS011;12600;53.326;-6.298;2022-07-05T08:43:25;2.28;;;2.08;;
24421;SDS011;12600;53.326;-6.298;2022-07-05T08:45:57;3.10;;;2.20;;
24421;SDS011;12600;53.326;-6.298;2022-07-05T08:48:27;2.45;;;2.25;;
24421;SDS011;12600;53.326;-6.298;2022-07-05T08:50:59;4.45;;;2.25;;
24421;SDS011;12600;53.326;-6.298;2022-07-05T08:53:29;2.38;;;2.17;;
24421;SDS011;12600;53.326;-6.298;2022-07-05T08:55:59;3.15;;;2.30;;
24421;SDS011;12600;53.326;-6.298;2022-07-05T08:58:29;2.30;;;2.10;;
24421;SDS011;12600;53.326;-6.298;2022-07-05T09:00:59;4.70;;;2.67;;
24421;SDS011;12600;53.326;-6.298;2022-07-05T09:03:29;5.03;;;4.70;;
24421;SDS011;12600;53.326;-6.298;2022-07-05T09:06:02;3.28;;;2.50;;
24421;SDS011;12600;53.326;-6.298;2022-07-05T09:08:36;5.50;;;2.40;;
24421;SDS011;12600;53.326;-6.298;2022-07-05T09:11:08;2.65;;;2.20;;
24421;SDS011;12600;53.326;-6.298;2022-07-05T09:13:40;5.00;;;2.50;;
24421;SDS011;12600;53.326;-6.298;2022-07-05T09:16:30;4.72;;;2.60;;
24421;SDS011;12600;53.326;-6.298;2022-07-05T09:19:04;2.47;;;2.25;;
24421;SDS011;12600;53.326;-6.298;2022-07-05T09:21:37;2.63;;;2.42;;
24421;SDS011;12600;53.326;-6.298;2022-07-05T09:24:08;4.43;;;3.88;;
24421;SDS011;12600;53.326;-6.298;2022-07-05T09:26:39;2.25;;;2.05;;
24421;SDS011;12600;53.326;-6.298;2022-07-05T09:29:12;2.92;;;2.13;;
24421;SDS011;12600;53.326;-6.298;2022-07-05T09:32:03;4.70;;;4.38;;
24421;SDS011;12600;53.326;-6.298;2022-07-05T09:34:33;2.63;;;2.17;;
24421;SDS011;12600;53.326;-6.298;2022-07-05T09:37:04;2.17;;;1.95;;
24421;SDS011;12600;53.326;-6.298;2022-07-05T09:39:34;2.47;;;2.17;;
24421;SDS011;12600;53.326;-6.298;2022-07-05T09:42:09;2.60;;;2.40;;
24421;SDS011;12600;53.326;-6.298;2022-07-05T09:44:41;2.30;;;2.08;;
24421;SDS011;12600;53.326;-6.298;2022-07-05T09:47:14;3.10;;;2.83;;
24421;SDS011;12600;53.326;-6.298;2022-07-05T09:52:37;2.13;;;1.92;;
24421;SDS011;12600;53.326;-6.298;2022-07-05T09:55:09;2.80;;;2.40;;
24421;SDS011;12600;53.326;-6.298;2022-07-05T09:57:41;4.38;;;2.70;;
24421;SDS011;12600;53.326;-6.298;2022-07-05T10:00:13;2.47;;;2.28;;
24421;SDS011;12600;53.326;-6.298;2022-07-05T10:02:45;2.40;;;2.17;;
24421;SDS011;12600;53.326;-6.298;2022-07-05T10:05:18;1.98;;;1.88;;
24421;SDS011;12600;53.326;-6.298;2022-07-05T10:07:50;9.75;;;9.20;;
24421;SDS011;12600;53.326;-6.298;2022-07-05T10:10:22;3.50;;;3.25;;
24421;SDS011;12600;53.326;-6.298;2022-07-05T10:12:53;2.25;;;2.00;;
24421;SDS011;12600;53.326;-6.298;2022-07-05T10:15:25;2.40;;;2.20;;
24421;SDS011;12600;53.326;-6.298;2022-07-05T10:17:58;3.80;;;2.72;;
24421;SDS011;12600;53.326;-6.298;2022-07-05T10:20:32;2.60;;;2.40;;
24421;SDS011;12600;53.326;-6.298;2022-07-05T10:23:13;4.25;;;3.95;;
24421;SDS011;12600;53.326;-6.298;2022-07-05T10:25:44;3.38;;;3.15;;
24421;SDS011;12600;53.326;-6.298;2022-07-05T10:28:16;2.67;;;2.47;;
24421;SDS011;12600;53.326;-6.298;2022-07-05T10:30:47;2.95;;;2.30;;
24421;SDS011;12600;53.326;-6.298;2022-07-05T10:33:17;2.75;;;2.55;;
24421;SDS011;12600;53.326;-6.298;2022-07-05T10:35:52;2.97;;;2.58;;
24421;SDS011;12600;53.326;-6.298;2022-07-05T10:38:23;3.20;;;2.90;;
24421;SDS011;12600;53.326;-6.298;2022-07-05T10:40:54;3.60;;;2.60;;
24421;SDS011;12600;53.326;-6.298;2022-07-05T10:43:28;4.78;;;3.45;;
24421;SDS011;12600;53.326;-6.298;2022-07-05T10:45:58;2.78;;;2.53;;
24421;SDS011;12600;53.326;-6.298;2022-07-05T10:48:29;3.20;;;2.90;;
24421;SDS011;12600;53.326;-6.298;2022-07-05T10:50:59;3.30;;;2.67;;
24421;SDS011;12600;53.326;-6.298;2022-07-05T10:54:02;2.78;;;2.58;;
24421;SDS011;12600;53.326;-6.298;2022-07-05T10:56:32;2.47;;;2.28;;
24421;SDS011;12600;53.326;-6.298;2022-07-05T10:59:08;2.58;;;2.38;;
24421;SDS011;12600;53.326;-6.298;2022-07-05T11:01:40;3.20;;;2.40;;
24421;SDS011;12600;53.326;-6.298;2022-07-05T11:07:05;2.85;;;2.60;;
24421;SDS011;12600;53.326;-6.298;2022-07-05T11:09:36;4.07;;;3.13;;
24421;SDS011;12600;53.326;-6.298;2022-07-05T11:12:34;2.83;;;2.50;;
24421;SDS011;12600;53.326;-6.298;2022-07-05T11:15:05;5.07;;;2.80;;
24421;SDS011;12600;53.326;-6.298;2022-07-05T11:17:38;3.78;;;2.80;;
24421;SDS011;12600;53.326;-6.298;2022-07-05T11:20:28;3.28;;;2.75;;
24421;SDS011;12600;53.326;-6.298;2022-07-05T11:25:36;3.15;;;2.40;;
24421;SDS011;12600;53.326;-6.298;2022-07-05T11:28:13;3.13;;;2.60;;
24421;SDS011;12600;53.326;-6.298;2022-07-05T11:30:53;2.70;;;2.50;;
24421;SDS011;12600;53.326;-6.298;2022-07-05T11:33:30;3.17;;;2.83;;
24421;SDS011;12600;53.326;-6.298;2022-07-05T11:36:06;4.20;;;2.78;;
24421;SDS011;12600;53.326;-6.298;2022-07-05T11:39:06;3.08;;;2.47;;
24421;SDS011;12600;53.326;-6.298;2022-07-05T11:41:45;2.70;;;2.50;;
24421;SDS011;12600;53.326;-6.298;2022-07-05T11:44:15;5.90;;;5.50;;
24421;SDS011;12600;53.326;-6.298;2022-07-05T11:46:45;3.00;;;2.50;;
24421;SDS011;12600;53.326;-6.298;2022-07-05T11:49:20;4.57;;;2.78;;
24421;SDS011;12600;53.326;-6.298;2022-07-05T11:51:54;2.90;;;2.70;;
24421;SDS011;12600;53.326;-6.298;2022-07-05T11:54:26;3.63;;;2.65;;
24421;SDS011;12600;53.326;-6.298;2022-07-05T11:56:59;4.13;;;2.30;;
24421;SDS011;12600;53.326;-6.298;2022-07-05T11:59:28;3.05;;;2.35;;
24421;SDS011;12600;53.326;-6.298;2022-07-05T12:01:58;3.58;;;2.65;;
24421;SDS011;12600;53.326;-6.298;2022-07-05T12:04:27;2.92;;;2.65;;
24421;SDS011;12600;53.326;-6.298;2022-07-05T12:06:59;2.80;;;2.60;;
24421;SDS011;12600;53.326;-6.298;2022-07-05T12:09:28;2.85;;;2.63;;
24421;SDS011;12600;53.326;-6.298;2022-07-05T12:12:22;4.05;;;2.80;;
24421;SDS011;12600;53.326;-6.298;2022-07-05T12:15:10;3.08;;;2.78;;
24421;SDS011;12600;53.326;-6.298;2022-07-05T12:17:41;3.33;;;3.03;;
24421;SDS011;12600;53.326;-6.298;2022-07-05T12:20:13;4.00;;;3.08;;
24421;SDS011;12600;53.326;-6.298;2022-07-05T12:22:44;5.03;;;3.30;;
24421;SDS011;12600;53.326;-6.298;2022-07-05T12:25:14;5.50;;;3.20;;
24421;SDS011;12600;53.326;-6.298;2022-07-05T12:27:48;4.00;;;3.60;;
24421;SDS011;12600;53.326;-6.298;2022-07-05T12:30:20;4.00;;;3.33;;
24421;SDS011;12600;53.326;-6.298;2022-07-05T12:32:54;13.68;;;12.48;;
24421;SDS011;12600;53.326;-6.298;2022-07-05T12:35:28;4.28;;;3.55;;
24421;SDS011;12600;53.326;-6.298;2022-07-05T12:38:06;3.75;;;3.45;;
24421;SDS011;12600;53.326;-6.298;2022-07-05T12:40:37;4.72;;;3.67;;
24421;SDS011;12600;53.326;-6.298;2022-07-05T12:43:09;3.92;;;3.63;;
24421;SDS011;12600;53.326;-6.298;2022-07-05T12:45:40;4.65;;;4.35;;
24421;SDS011;12600;53.326;-6.298;2022-07-05T12:48:12;5.05;;;4.10;;
24421;SDS011;12600;53.326;-6.298;2022-07-05T12:50:45;4.05;;;3.75;;
24421;SDS011;12600;53.326;-6.298;2022-07-05T12:53:44;4.20;;;3.85;;
24421;SDS011;12600;53.326;-6.298;2022-07-05T12:56:31;4.47;;;4.03;;
24421;SDS011;12600;53.326;-6.298;2022-07-05T12:59:40;3.78;;;3.40;;
24421;SDS011;12600;53.326;-6.298;2022-07-05T13:02:36;3.88;;;3.58;;
24421;SDS011;12600;53.326;-6.298;2022-07-05T13:05:08;3.92;;;3.55;;
24421;SDS011;12600;53.326;-6.298;2022-07-05T13:07:49;3.60;;;3.30;;
24421;SDS011;12600;53.326;-6.298;2022-07-05T13:10:21;4.78;;;4.45;;
24421;SDS011;12600;53.326;-6.298;2022-07-05T13:12:55;3.83;;;3.50;;
24421;SDS011;12600;53.326;-6.298;2022-07-05T13:15:25;5.45;;;4.20;;
24421;SDS011;12600;53.326;-6.298;2022-07-05T13:17:55;4.18;;;3.78;;
24421;SDS011;12600;53.326;-6.298;2022-07-05T13:20:25;4.30;;;3.90;;
24421;SDS011;12600;53.326;-6.298;2022-07-05T13:22:54;5.13;;;4.13;;
24421;SDS011;12600;53.326;-6.298;2022-07-05T13:25:24;4.43;;;4.03;;
24421;SDS011;12600;53.326;-6.298;2022-07-05T13:27:54;3.97;;;3.67;;
24421;SDS011;12600;53.326;-6.298;2022-07-05T13:30:23;4.70;;;4.38;;
24421;SDS011;12600;53.326;-6.298;2022-07-05T13:32:54;4.72;;;4.25;;
24421;SDS011;12600;53.326;-6.298;2022-07-05T13:35:23;6.00;;;5.60;;
24421;SDS011;12600;53.326;-6.298;2022-07-05T13:37:52;4.82;;;4.30;;
24421;SDS011;12600;53.326;-6.298;2022-07-05T13:40:22;4.82;;;4.35;;
24421;SDS011;12600;53.326;-6.298;2022-07-05T13:42:51;6.97;;;6.47;;
24421;SDS011;12600;53.326;-6.298;2022-07-05T13:45:20;6.65;;;6.25;;
24421;SDS011;12600;53.326;-6.298;2022-07-05T13:47:57;5.20;;;4.80;;
24421;SDS011;12600;53.326;-6.298;2022-07-05T13:50:26;6.35;;;4.82;;
24421;SDS011;12600;53.326;-6.298;2022-07-05T13:53:02;5.55;;;4.80;;
24421;SDS011;12600;53.326;-6.298;2022-07-05T13:55:31;4.40;;;4.00;;
24421;SDS011;12600;53.326;-6.298;2022-07-05T13:58:01;5.68;;;5.18;;
24421;SDS011;12600;53.326;-6.298;2022-07-05T14:00:30;5.28;;;4.88;;
24421;SDS011;12600;53.326;-6.298;2022-07-05T14:03:01;5.65;;;4.72;;
24421;SDS011;12600;53.326;-6.298;2022-07-05T14:05:32;5.45;;;5.05;;
24421;SDS011;12600;53.326;-6.298;2022-07-05T14:08:01;5.40;;;4.97;;
24421;SDS011;12600;53.326;-6.298;2022-07-05T14:10:32;6.05;;;5.55;;
24421;SDS011;12600;53.326;-6.298;2022-07-05T14:13:01;5.60;;;4.40;;
24421;SDS011;12600;53.326;-6.298;2022-07-05T14:15:30;8.68;;;4.78;;
24421;SDS011;12600;53.326;-6.298;2022-07-05T14:18:01;5.45;;;4.80;;
24421;SDS011;12600;53.326;-6.298;2022-07-05T14:20:31;6.18;;;5.68;;
24421;SDS011;12600;53.326;-6.298;2022-07-05T14:23:00;7.10;;;5.10;;
24421;SDS011;12600;53.326;-6.298;2022-07-05T14:25:29;7.28;;;6.13;;
24421;SDS011;12600;53.326;-6.298;2022-07-05T14:27:58;5.35;;;4.85;;
24421;SDS011;12600;53.326;-6.298;2022-07-05T14:30:28;5.95;;;5.20;;
24421;SDS011;12600;53.326;-6.298;2022-07-05T14:32:57;6.03;;;5.45;;
24421;SDS011;12600;53.326;-6.298;2022-07-05T14:35:28;5.45;;;4.88;;
24421;SDS011;12600;53.326;-6.298;2022-07-05T14:37:58;9.20;;;8.40;;
24421;SDS011;12600;53.326;-6.298;2022-07-05T14:40:27;7.50;;;5.35;;
24421;SDS011;12600;53.326;-6.298;2022-07-05T14:42:57;6.50;;;5.90;;
24421;SDS011;12600;53.326;-6.298;2022-07-05T14:45:28;7.65;;;5.75;;
24421;SDS011;12600;53.326;-6.298;2022-07-05T14:47:57;8.13;;;7.35;;
24421;SDS011;12600;53.326;-6.298;2022-07-05T14:50:28;6.72;;;5.97;;
24421;SDS011;12600;53.326;-6.298;2022-07-05T14:52:57;10.18;;;9.23;;
24421;SDS011;12600;53.326;-6.298;2022-07-05T14:55:32;7.32;;;6.65;;
24421;SDS011;12600;53.326;-6.298;2022-07-05T14:58:02;6.18;;;5.57;;
24421;SDS011;12600;53.326;-6.298;2022-07-05T15:00:31;13.13;;;7.65;;
24421;SDS011;12600;53.326;-6.298;2022-07-05T15:03:00;9.77;;;8.82;;
24421;SDS011;12600;53.326;-6.298;2022-07-05T15:05:31;7.82;;;5.90;;
24421;SDS011;12600;53.326;-6.298;2022-07-05T15:08:00;6.28;;;5.68;;
24421;SDS011;12600;53.326;-6.298;2022-07-05T15:10:29;7.18;;;5.72;;